LOT3KV LEMD-RJTT
Flight info
| Callsign | LOT3KV |
|---|---|
| Flight time | N/A |
| Altitude | 32000 |
| Route | RBO DCT DGO DCT ABRIX DCT ASKAN DCT ETPAR DCT POI DCT BOKNO DCT VANAD DCT VEKIN DCT ADUTO/N0488F330 DCT TUSKA DCT ERGAT DCT RADIS DCT LOBBI DCT LALIL DCT LAPSI DCT PERAX DCT ARTAB DCT TOGMI DCT TADOX DCT BAVMO/K0900F330 DCT ODIMA DCT NRM/K0919F350 DCT REBSI DCT KUSET DCT LUGUN DCT UNILA DCT LEBNA DCT BANLI/K0907F370 DCT IPREL DCT HAB DCT LUTEL DCT IGROD/N0489F370 DCT KADBO GTC SASAP GODIN |
| Aircraft | B77W/H-SDE1E2E3FGHIJ2J3J4J5M1RWXY/LB1D1 |
Departure
| Time | 2026-05-01 11:13 |
|---|---|
| Airport | Adolfo Suárez Madrid–Barajas Airport (LEMD) |
Arrival
| Time | N/A |
|---|---|
| Airport | Tokyo Haneda International Airport (RJTT) |
| Time | Latitude | Longitude | Altitude | Speed | Heading |
|---|---|---|---|---|---|
| 2026-05-01 10:43 | 40.46151 | -3.57138 | 1950 ft | 0 kts | 47° |
| 2026-05-01 11:03 | 40.46149 | -3.57141 | 1985 ft | 2 kts | 47° |
| 2026-05-01 11:03 | 40.46138 | -3.57157 | 1985 ft | 2 kts | 47° |
| 2026-05-01 11:04 | 40.46127 | -3.57173 | 1984 ft | 2 kts | 47° |
| 2026-05-01 11:04 | 40.46116 | -3.57189 | 1985 ft | 2 kts | 47° |
| 2026-05-01 11:04 | 40.46105 | -3.57205 | 1984 ft | 2 kts | 47° |
| 2026-05-01 11:04 | 40.46095 | -3.57222 | 1984 ft | 2 kts | 66° |
| 2026-05-01 11:05 | 40.46093 | -3.57234 | 1984 ft | 2 kts | 100° |
| 2026-05-01 11:05 | 40.46087 | -3.57217 | 1985 ft | 2 kts | 116° |
| 2026-05-01 11:05 | 40.46080 | -3.57201 | 1988 ft | 1 kts | 122° |
| 2026-05-01 11:05 | 40.46072 | -3.57187 | 1986 ft | 0 kts | 128° |
| 2026-05-01 11:07 | 40.46048 | -3.57133 | 1984 ft | 7 kts | 107° |
| 2026-05-01 11:07 | 40.46060 | -3.57063 | 1988 ft | 10 kts | 52° |
| 2026-05-01 11:07 | 40.46109 | -3.56981 | 1986 ft | 13 kts | 50° |
| 2026-05-01 11:07 | 40.46179 | -3.56882 | 1989 ft | 16 kts | 47° |
| 2026-05-01 11:08 | 40.46218 | -3.56743 | 1988 ft | 17 kts | 91° |
| 2026-05-01 11:08 | 40.46217 | -3.56588 | 1988 ft | 17 kts | 88° |
| 2026-05-01 11:08 | 40.46459 | -3.56485 | 1985 ft | 31 kts | 5° |
| 2026-05-01 11:09 | 40.46722 | -3.56470 | 1987 ft | 41 kts | 2° |
| 2026-05-01 11:09 | 40.47003 | -3.56451 | 1988 ft | 39 kts | 355° |
| 2026-05-01 11:09 | 40.47237 | -3.56600 | 1987 ft | 37 kts | 322° |
| 2026-05-01 11:10 | 40.47624 | -3.56997 | 1989 ft | 34 kts | 321° |
| 2026-05-01 11:10 | 40.47806 | -3.57181 | 1987 ft | 33 kts | 323° |
| 2026-05-01 11:10 | 40.47992 | -3.57367 | 1987 ft | 34 kts | 322° |
| 2026-05-01 11:10 | 40.48186 | -3.57562 | 1987 ft | 36 kts | 322° |
| 2026-05-01 11:11 | 40.48382 | -3.57765 | 1987 ft | 37 kts | 322° |
| 2026-05-01 11:11 | 40.48610 | -3.57928 | 1985 ft | 38 kts | 348° |
| 2026-05-01 11:11 | 40.48880 | -3.57938 | 1985 ft | 39 kts | 0° |
| 2026-05-01 11:11 | 40.49131 | -3.57935 | 1986 ft | 22 kts | 9° |
| 2026-05-01 11:12 | 40.49172 | -3.57804 | 1988 ft | 18 kts | 90° |
| 2026-05-01 11:12 | 40.49177 | -3.57632 | 1987 ft | 20 kts | 76° |
| 2026-05-01 11:12 | 40.49249 | -3.57473 | 1988 ft | 21 kts | 24° |
| 2026-05-01 11:12 | 40.49397 | -3.57464 | 1988 ft | 25 kts | 360° |
| 2026-05-01 11:13 | 40.49660 | -3.57466 | 1985 ft | 62 kts | 360° |
| 2026-05-01 11:13 | 40.50397 | -3.57470 | 1985 ft | 148 kts | 360° |
| 2026-05-01 11:13 | 40.51697 | -3.57472 | 2072 ft | 217 kts | 0° |
| 2026-05-01 11:13 | 40.53261 | -3.57467 | 2992 ft | 230 kts | 360° |
| 2026-05-01 11:14 | 40.54824 | -3.57502 | 4474 ft | 215 kts | 358° |
| 2026-05-01 11:14 | 40.56254 | -3.57177 | 5144 ft | 213 kts | 22° |
| 2026-05-01 11:14 | 40.57711 | -3.56483 | 5363 ft | 230 kts | 17° |
| 2026-05-01 11:14 | 40.59334 | -3.55855 | 5491 ft | 256 kts | 16° |
| 2026-05-01 11:15 | 40.61112 | -3.55194 | 5897 ft | 270 kts | 16° |
| 2026-05-01 11:15 | 40.62913 | -3.54525 | 6560 ft | 274 kts | 16° |
| 2026-05-01 11:15 | 40.64781 | -3.54016 | 7202 ft | 277 kts | 5° |
| 2026-05-01 11:15 | 40.66715 | -3.53849 | 7915 ft | 279 kts | 2° |
| 2026-05-01 11:16 | 40.68667 | -3.53724 | 8538 ft | 283 kts | 4° |
| 2026-05-01 11:16 | 40.70557 | -3.52942 | 8949 ft | 293 kts | 36° |
| 2026-05-01 11:16 | 40.71919 | -3.50951 | 9481 ft | 296 kts | 57° |
| 2026-05-01 11:16 | 40.73070 | -3.48654 | 10037 ft | 304 kts | 57° |
| 2026-05-01 11:17 | 40.74256 | -3.46302 | 10591 ft | 312 kts | 56° |
| 2026-05-01 11:17 | 40.75504 | -3.43849 | 10775 ft | 334 kts | 56° |
| 2026-05-01 11:17 | 40.76855 | -3.41214 | 10943 ft | 357 kts | 56° |
| 2026-05-01 11:17 | 40.78295 | -3.38420 | 11143 ft | 379 kts | 56° |
| 2026-05-01 11:18 | 40.79803 | -3.35508 | 11663 ft | 389 kts | 56° |
| 2026-05-01 11:18 | 40.81344 | -3.32535 | 12332 ft | 396 kts | 55° |
| 2026-05-01 11:18 | 40.82895 | -3.29545 | 13083 ft | 400 kts | 55° |
| 2026-05-01 11:18 | 40.84585 | -3.26626 | 13742 ft | 400 kts | 43° |
| 2026-05-01 11:19 | 40.86905 | -3.24569 | 14268 ft | 406 kts | 21° |
| 2026-05-01 11:19 | 40.89608 | -3.23595 | 14959 ft | 402 kts | 8° |
| 2026-05-01 11:19 | 40.92397 | -3.22985 | 15569 ft | 408 kts | 7° |
| 2026-05-01 11:19 | 40.95213 | -3.22391 | 16251 ft | 412 kts | 7° |
| 2026-05-01 11:20 | 40.98060 | -3.21793 | 16930 ft | 416 kts | 7° |
| 2026-05-01 11:20 | 41.00898 | -3.21188 | 17606 ft | 420 kts | 7° |
| 2026-05-01 11:20 | 41.03799 | -3.20559 | 18251 ft | 425 kts | 7° |
| 2026-05-01 11:20 | 41.06727 | -3.19915 | 18841 ft | 429 kts | 7° |
| 2026-05-01 11:21 | 41.09685 | -3.19258 | 19432 ft | 433 kts | 7° |
| 2026-05-01 11:21 | 41.12668 | -3.18590 | 20035 ft | 436 kts | 7° |
| 2026-05-01 11:21 | 41.15672 | -3.17914 | 20640 ft | 439 kts | 7° |
| 2026-05-01 11:21 | 41.18693 | -3.17233 | 21236 ft | 442 kts | 7° |
| 2026-05-01 11:22 | 41.21737 | -3.16546 | 21797 ft | 445 kts | 7° |
| 2026-05-01 11:22 | 41.24810 | -3.15851 | 22361 ft | 449 kts | 7° |
| 2026-05-01 11:22 | 41.27910 | -3.15150 | 22912 ft | 453 kts | 7° |
| 2026-05-01 11:22 | 41.31032 | -3.14445 | 23480 ft | 456 kts | 7° |
| 2026-05-01 11:23 | 41.34172 | -3.13733 | 23970 ft | 460 kts | 7° |
| 2026-05-01 11:23 | 41.37308 | -3.13022 | 24403 ft | 463 kts | 7° |
| 2026-05-01 11:23 | 41.40493 | -3.12299 | 24862 ft | 466 kts | 7° |
| 2026-05-01 11:23 | 41.43701 | -3.11570 | 25300 ft | 469 kts | 7° |
| 2026-05-01 11:24 | 41.46917 | -3.10839 | 25727 ft | 471 kts | 7° |
| 2026-05-01 11:24 | 41.50161 | -3.10101 | 26145 ft | 474 kts | 7° |
| 2026-05-01 11:24 | 41.56714 | -3.08606 | 26952 ft | 480 kts | 7° |
| 2026-05-01 11:25 | 41.60014 | -3.07853 | 27354 ft | 483 kts | 6° |
| 2026-05-01 11:25 | 41.66685 | -3.06328 | 28115 ft | 488 kts | 6° |
| 2026-05-01 11:25 | 41.70040 | -3.05559 | 28488 ft | 490 kts | 6° |
| 2026-05-01 11:26 | 41.73407 | -3.04787 | 28809 ft | 492 kts | 6° |
| 2026-05-01 11:26 | 41.80205 | -3.03225 | 29473 ft | 497 kts | 6° |
| 2026-05-01 11:26 | 41.83571 | -3.02452 | 29774 ft | 499 kts | 6° |
| 2026-05-01 11:27 | 41.86991 | -3.01664 | 30106 ft | 500 kts | 6° |
| 2026-05-01 11:27 | 41.90431 | -3.00870 | 30475 ft | 499 kts | 6° |
| 2026-05-01 11:27 | 41.93848 | -3.00080 | 30873 ft | 497 kts | 6° |
| 2026-05-01 11:28 | 41.94624 | -2.99901 | 30971 ft | 497 kts | 6° |
| 2026-05-01 11:28 | 41.98146 | -2.99086 | 31369 ft | 495 kts | 6° |
| 2026-05-01 11:29 | 42.04913 | -2.97519 | 32083 ft | 492 kts | 6° |
| 2026-05-01 11:29 | 42.08288 | -2.96736 | 32427 ft | 491 kts | 6° |
| 2026-05-01 11:29 | 42.15013 | -2.95175 | 33101 ft | 489 kts | 6° |
| 2026-05-01 11:30 | 42.18343 | -2.94401 | 33132 ft | 491 kts | 6° |
| 2026-05-01 11:30 | 42.25059 | -2.92837 | 33146 ft | 488 kts | 6° |
| 2026-05-01 11:31 | 42.31758 | -2.91272 | 33141 ft | 486 kts | 6° |
| 2026-05-01 11:31 | 42.38406 | -2.89717 | 33151 ft | 485 kts | 6° |
| 2026-05-01 11:32 | 42.44999 | -2.87600 | 33150 ft | 489 kts | 16° |
| 2026-05-01 11:32 | 42.51235 | -2.83814 | 33157 ft | 495 kts | 26° |
| 2026-05-01 11:33 | 42.57219 | -2.79238 | 33160 ft | 497 kts | 27° |
| 2026-05-01 11:33 | 42.63246 | -2.74584 | 33172 ft | 498 kts | 27° |
| 2026-05-01 11:34 | 42.69293 | -2.69964 | 33177 ft | 499 kts | 26° |
| 2026-05-01 11:34 | 42.75362 | -2.65351 | 33183 ft | 499 kts | 26° |
| 2026-05-01 11:35 | 42.81439 | -2.60727 | 33184 ft | 500 kts | 26° |
| 2026-05-01 11:35 | 42.87471 | -2.56124 | 33179 ft | 499 kts | 27° |
| 2026-05-01 11:36 | 42.93551 | -2.51471 | 33178 ft | 499 kts | 27° |
| 2026-05-01 11:36 | 42.99553 | -2.46869 | 33172 ft | 498 kts | 27° |
| 2026-05-01 11:37 | 43.05584 | -2.42234 | 33147 ft | 495 kts | 28° |
| 2026-05-01 11:37 | 43.11587 | -2.37608 | 33147 ft | 495 kts | 28° |
| 2026-05-01 11:38 | 43.17589 | -2.32974 | 33150 ft | 494 kts | 28° |
| 2026-05-01 11:38 | 43.23582 | -2.28336 | 33148 ft | 494 kts | 28° |
| 2026-05-01 11:39 | 43.29560 | -2.23698 | 33162 ft | 493 kts | 28° |
| 2026-05-01 11:39 | 43.35533 | -2.19054 | 33147 ft | 494 kts | 28° |
| 2026-05-01 11:40 | 43.41512 | -2.14396 | 33151 ft | 494 kts | 28° |